createdAt,value
2023-05-24T00:01:00.806Z,3.92
2023-05-24T00:06:07.792Z,4.00
2023-05-24T00:11:13.396Z,4.50
2023-05-24T00:16:18.902Z,4.70
2023-05-24T00:21:24.476Z,3.88
2023-05-24T00:26:29.919Z,3.70
2023-05-24T00:31:36.257Z,3.72
2023-05-24T00:36:42.674Z,3.85
2023-05-24T00:41:48.223Z,3.72
2023-05-24T00:46:53.970Z,4.38
2023-05-24T00:52:00.650Z,4.28
2023-05-24T00:57:06.446Z,4.32
2023-05-24T01:02:12.098Z,4.57
2023-05-24T01:07:28.492Z,5.55
2023-05-24T01:12:58.480Z,3.95
2023-05-24T01:18:47.893Z,4.45
2023-05-24T01:24:19.157Z,4.50
2023-05-24T01:29:26.454Z,3.40
2023-05-24T01:39:37.109Z,3.95
2023-05-24T01:44:42.429Z,4.03
2023-05-24T01:49:55.270Z,4.18
2023-05-24T01:55:04.123Z,4.28
2023-05-24T02:00:12.348Z,4.13
2023-05-24T02:05:22.623Z,3.67
2023-05-24T02:10:28.151Z,4.32
2023-05-24T02:15:34.168Z,4.63
2023-05-24T02:20:39.842Z,4.93
2023-05-24T02:25:45.496Z,4.80
2023-05-24T02:30:51.871Z,4.90
2023-05-24T02:35:57.738Z,4.22
2023-05-24T02:41:03.628Z,4.10
2023-05-24T02:46:09.272Z,5.15
2023-05-24T02:51:14.766Z,5.05
2023-05-24T02:56:20.090Z,5.15
2023-05-24T03:01:25.663Z,5.05
2023-05-24T03:06:33.583Z,4.97
2023-05-24T03:11:39.350Z,4.38
2023-05-24T03:16:45.172Z,5.30
2023-05-24T03:21:50.996Z,5.50
2023-05-24T03:26:56.231Z,5.00
2023-05-24T03:32:02.767Z,4.95
2023-05-24T03:37:08.612Z,5.30
2023-05-24T03:42:14.963Z,5.38
2023-05-24T03:47:20.462Z,4.57
2023-05-24T03:52:26.454Z,4.88
2023-05-24T03:57:32.776Z,5.03
2023-05-24T04:02:41.094Z,4.70
2023-05-24T04:07:47.026Z,4.88
2023-05-24T04:12:52.625Z,4.30
2023-05-24T04:17:58.357Z,4.10
2023-05-24T04:23:03.815Z,4.32
2023-05-24T04:28:10.827Z,4.82
2023-05-24T04:38:23.139Z,4.57
2023-05-24T04:43:29.294Z,5.03
2023-05-24T04:48:34.905Z,4.97
2023-05-24T04:53:40.680Z,4.47
2023-05-24T04:58:44.874Z,5.20
2023-05-24T05:03:49.501Z,3.95
2023-05-24T05:08:54.407Z,3.97
2023-05-24T05:13:59.095Z,4.15
2023-05-24T05:19:06.935Z,4.30
2023-05-24T05:24:16.955Z,4.10
2023-05-24T05:29:22.859Z,4.03
2023-05-24T05:34:28.265Z,4.55
2023-05-24T05:39:35.158Z,5.18
2023-05-24T05:44:39.384Z,4.40
2023-05-24T05:49:43.611Z,4.68
2023-05-24T05:54:47.892Z,3.72
2023-05-24T05:59:52.614Z,4.45
2023-05-24T06:04:57.331Z,4.45
2023-05-24T06:10:01.475Z,4.35
2023-05-24T06:15:09.254Z,4.13
2023-05-24T06:20:17.583Z,4.45
2023-05-24T06:25:24.865Z,4.22
2023-05-24T06:30:29.380Z,3.95
2023-05-24T06:35:33.556Z,3.97
2023-05-24T06:40:37.797Z,3.33
2023-05-24T06:45:42.833Z,3.15
2023-05-24T06:50:47.746Z,3.30
2023-05-24T06:55:52.211Z,2.92
2023-05-24T07:00:56.088Z,3.30
2023-05-24T07:06:00.234Z,3.67
2023-05-24T07:11:04.934Z,3.35
2023-05-24T07:16:09.187Z,3.60
2023-05-24T07:21:13.340Z,3.13
2023-05-24T07:26:17.748Z,2.75
2023-05-24T07:31:22.096Z,3.45
2023-05-24T07:36:26.777Z,2.65
2023-05-24T07:41:31.115Z,2.58
2023-05-24T07:46:35.772Z,2.42
2023-05-24T07:51:40.549Z,2.75
2023-05-24T07:56:45.128Z,2.20
2023-05-24T08:01:49.353Z,2.38
2023-05-24T08:06:53.530Z,2.33
2023-05-24T08:11:57.764Z,2.17
2023-05-24T08:17:01.988Z,1.88
2023-05-24T08:22:06.217Z,1.83
2023-05-24T08:27:10.487Z,1.42
2023-05-24T08:32:14.856Z,2.33
2023-05-24T08:37:23.197Z,2.25
2023-05-24T08:42:29.852Z,2.10
2023-05-24T08:47:34.421Z,2.00
2023-05-24T08:52:40.313Z,1.75
2023-05-24T08:57:46.418Z,2.67
2023-05-24T09:07:57.611Z,2.63
2023-05-24T09:13:04.296Z,1.98
2023-05-24T09:24:26.152Z,2.03
2023-05-24T09:29:30.606Z,2.33
2023-05-24T09:34:41.018Z,2.47
2023-05-24T09:39:48.307Z,1.98
2023-05-24T09:45:15.359Z,2.40
2023-05-24T09:50:19.566Z,1.85
2023-05-24T09:55:24.592Z,2.20
2023-05-24T10:00:29.687Z,1.83
2023-05-24T10:05:34.738Z,1.85
2023-05-24T10:10:41.062Z,3.28
2023-05-24T10:15:46.069Z,2.15
2023-05-24T10:20:53.170Z,2.08
2023-05-24T10:26:10.458Z,3.92
2023-05-24T10:31:29.096Z,2.30
2023-05-24T10:36:34.715Z,2.97
2023-05-24T10:41:42.774Z,2.50
2023-05-24T10:47:12.758Z,1.73
2023-05-24T10:52:17.097Z,2.28
2023-05-24T10:57:25.804Z,2.30
2023-05-24T11:02:36.508Z,2.65
2023-05-24T11:07:43.831Z,2.97
2023-05-24T11:12:58.301Z,2.38
2023-05-24T11:18:14.558Z,2.40
2023-05-24T11:23:20.227Z,2.13
2023-05-24T11:28:25.005Z,1.60
2023-05-24T11:33:29.564Z,2.17
2023-05-24T11:38:37.238Z,2.17
2023-05-24T11:43:42.585Z,1.90
2023-05-24T11:48:57.439Z,2.30
2023-05-24T11:54:01.976Z,1.88
2023-05-24T11:59:23.425Z,1.70
2023-05-24T12:04:31.928Z,2.47
2023-05-24T12:09:36.394Z,1.92
2023-05-24T12:14:41.108Z,1.38
2023-05-24T12:19:45.625Z,2.00
2023-05-24T12:24:52.818Z,2.42
2023-05-24T12:29:57.156Z,1.60
2023-05-24T12:35:01.336Z,2.20
2023-05-24T12:40:18.065Z,1.30
2023-05-24T12:45:27.079Z,2.33
2023-05-24T12:50:35.491Z,2.63
2023-05-24T12:55:41.140Z,2.15
2023-05-24T13:05:51.874Z,1.77
2023-05-24T13:16:00.714Z,2.00
2023-05-24T13:21:08.862Z,1.90
2023-05-24T13:26:15.089Z,2.13
2023-05-24T13:31:20.062Z,1.83
2023-05-24T13:36:24.692Z,1.80
2023-05-24T13:41:29.019Z,1.77
2023-05-24T13:46:34.912Z,2.08
2023-05-24T13:51:41.262Z,1.75
2023-05-24T13:56:49.710Z,1.55
2023-05-24T14:01:55.573Z,1.90
2023-05-24T14:12:08.601Z,2.25
2023-05-24T14:17:14.278Z,2.40
2023-05-24T14:22:19.873Z,2.03
2023-05-24T14:27:25.453Z,2.20
2023-05-24T14:32:31.297Z,1.55
2023-05-24T14:42:42.275Z,1.33
2023-05-24T14:47:47.827Z,1.98
2023-05-24T14:52:55.315Z,2.47
2023-05-24T14:58:01.380Z,1.63
2023-05-24T15:03:08.576Z,3.97
2023-05-24T15:08:14.317Z,1.50
2023-05-24T15:18:31.546Z,1.00
2023-05-24T15:23:37.204Z,1.35
2023-05-24T15:28:43.092Z,1.55
2023-05-24T15:33:48.663Z,1.38
2023-05-24T15:38:54.892Z,1.15
2023-05-24T15:44:01.494Z,1.80
2023-05-24T15:49:07.271Z,1.35
2023-05-24T15:54:12.685Z,1.58
2023-05-24T15:59:20.339Z,1.98
2023-05-24T16:04:30.053Z,1.60
2023-05-24T16:09:35.932Z,5.55
2023-05-24T16:14:41.524Z,4.97
2023-05-24T16:19:50.061Z,1.63
2023-05-24T16:24:55.816Z,1.55
2023-05-24T16:30:01.451Z,1.63
2023-05-24T16:35:10.143Z,1.10
2023-05-24T16:40:15.783Z,1.38
2023-05-24T16:45:21.468Z,1.58
2023-05-24T16:50:27.046Z,1.48
2023-05-24T16:55:32.537Z,1.48
2023-05-24T17:00:38.110Z,2.15
2023-05-24T17:05:45.107Z,1.17
2023-05-24T17:10:58.379Z,1.20
2023-05-24T17:16:05.197Z,1.52
2023-05-24T17:21:11.376Z,1.55
2023-05-24T17:26:16.956Z,1.98
2023-05-24T17:31:23.024Z,1.35
2023-05-24T17:36:28.812Z,1.80
2023-05-24T17:41:35.030Z,1.73
2023-05-24T17:51:47.664Z,2.45
2023-05-24T17:56:53.554Z,1.77
2023-05-24T18:02:01.150Z,1.75
2023-05-24T18:07:07.600Z,1.52
2023-05-24T18:17:19.062Z,1.50
2023-05-24T18:22:25.003Z,2.65
2023-05-24T18:27:30.555Z,1.98
2023-05-24T18:32:37.339Z,2.13
2023-05-24T18:37:44.069Z,1.73
2023-05-24T18:42:51.191Z,2.05
2023-05-24T18:47:56.822Z,2.03
2023-05-24T18:53:02.316Z,2.28
2023-05-24T18:58:08.323Z,2.28
2023-05-24T19:03:14.042Z,2.60
2023-05-24T19:08:20.246Z,1.95
2023-05-24T19:13:27.248Z,2.83
2023-05-24T19:18:32.891Z,2.85
2023-05-24T19:23:39.007Z,1.95
2023-05-24T19:28:53.355Z,2.95
2023-05-24T19:34:01.149Z,3.55
2023-05-24T19:39:06.836Z,2.47
2023-05-24T19:44:12.669Z,3.22
2023-05-24T19:49:18.418Z,2.50
2023-05-24T19:54:24.579Z,2.65
2023-05-24T19:59:30.794Z,2.92
2023-05-24T20:04:36.737Z,3.22
2023-05-24T20:09:42.524Z,2.45
2023-05-24T20:14:48.559Z,3.05
2023-05-24T20:19:54.396Z,2.10
2023-05-24T20:25:00.239Z,2.13
2023-05-24T20:30:06.927Z,2.00
2023-05-24T20:35:12.992Z,2.38
2023-05-24T20:40:25.640Z,2.33
2023-05-24T20:45:31.736Z,2.45
2023-05-24T20:50:37.690Z,2.30
2023-05-24T20:55:43.677Z,2.20
2023-05-24T21:00:49.684Z,3.10
2023-05-24T21:05:55.509Z,2.53
2023-05-24T21:11:01.386Z,2.78
2023-05-24T21:16:07.825Z,2.35
2023-05-24T21:21:13.562Z,3.15
2023-05-24T21:26:19.326Z,2.33
2023-05-24T21:31:25.961Z,2.95
2023-05-24T21:36:34.351Z,2.50
2023-05-24T21:41:40.210Z,2.47
2023-05-24T21:46:45.897Z,2.70
2023-05-24T21:51:51.904Z,2.78
2023-05-24T21:56:58.225Z,2.45
2023-05-24T22:02:04.216Z,2.55
2023-05-24T22:07:10.098Z,2.65
2023-05-24T22:12:15.666Z,2.60
2023-05-24T22:17:22.720Z,2.67
2023-05-24T22:22:29.265Z,2.60
2023-05-24T22:27:36.673Z,2.38
2023-05-24T22:32:43.499Z,2.78
2023-05-24T22:37:49.340Z,2.63
2023-05-24T22:42:55.379Z,2.53
2023-05-24T22:48:01.101Z,3.35
2023-05-24T22:53:09.780Z,3.03
2023-05-24T22:58:16.182Z,2.78
2023-05-24T23:03:22.530Z,2.42
2023-05-24T23:08:28.360Z,2.40
2023-05-24T23:13:36.582Z,2.83
2023-05-24T23:18:43.567Z,2.58
2023-05-24T23:23:49.897Z,2.42
2023-05-24T23:28:55.817Z,3.38
2023-05-24T23:34:01.908Z,2.38
2023-05-24T23:39:07.586Z,3.13
2023-05-24T23:44:13.421Z,2.67
2023-05-24T23:49:26.322Z,2.83
2023-05-24T23:54:32.322Z,2.47
2023-05-24T23:59:38.311Z,2.70
